Time;durP1;ratioP1;P1;durP2;ratioP2;P2;SDS_P1;SDS_P2;PMS_P1;PMS_P2;Temp;Humidity;BMP_temperature;BMP_pressure;BME280_temperature;BME280_humidity;BME280_pressure;Samples;Min_cycle;Max_cycle;Signal;HPM_P1;HPM_P2
2022/02/20 00:01:19;;;;;;;0.30;0.30;;;;;;;;;;1889315;76;26233;-53
2022/02/20 00:03:47;;;;;;;0.40;0.40;;;;;;;;;;1889533;76;26268;-59
2022/02/20 00:06:14;;;;;;;0.20;0.20;;;;;;;;;;1887474;75;26315;-58
2022/02/20 00:08:42;;;;;;;0.42;0.42;;;;;;;;;;1888813;76;26375;-55
2022/02/20 00:11:09;;;;;;;0.35;0.35;;;;;;;;;;1889567;76;26273;-61
2022/02/20 00:13:36;;;;;;;0.40;0.40;;;;;;;;;;1891166;76;26328;-58
2022/02/20 00:16:04;;;;;;;0.40;0.40;;;;;;;;;;1890304;76;26359;-56
2022/02/20 00:18:32;;;;;;;0.57;0.40;;;;;;;;;;1889789;76;26269;-53
2022/02/20 00:20:59;;;;;;;0.42;0.42;;;;;;;;;;1889672;76;26296;-60
2022/02/20 00:23:27;;;;;;;0.42;0.42;;;;;;;;;;1888973;76;26786;-63
2022/02/20 00:25:54;;;;;;;0.42;0.42;;;;;;;;;;1888820;76;26277;-60
2022/02/20 00:28:23;;;;;;;0.35;0.35;;;;;;;;;;1889885;76;26221;-57
2022/02/20 00:30:50;;;;;;;0.30;0.30;;;;;;;;;;1889570;76;26787;-53
2022/02/20 00:33:18;;;;;;;0.50;0.50;;;;;;;;;;1889744;76;26342;-58
2022/02/20 00:35:46;;;;;;;0.42;0.42;;;;;;;;;;1910711;74;26342;-53
2022/02/20 00:38:13;;;;;;;0.30;0.30;;;;;;;;;;1889344;76;26252;-59
2022/02/20 00:40:41;;;;;;;0.90;0.35;;;;;;;;;;1887904;76;26999;-57
2022/02/20 00:43:08;;;;;;;0.35;0.35;;;;;;;;;;1888357;76;26265;-58
2022/02/20 00:45:36;;;;;;;0.30;0.30;;;;;;;;;;1888711;76;26268;-53
2022/02/20 00:48:04;;;;;;;0.47;0.47;;;;;;;;;;1889262;75;26193;-52
2022/02/20 00:50:32;;;;;;;0.30;0.30;;;;;;;;;;1889786;76;26754;-65
2022/02/20 00:52:59;;;;;;;0.40;0.40;;;;;;;;;;1889495;76;26245;-61
2022/02/20 00:55:27;;;;;;;0.45;0.45;;;;;;;;;;1889394;75;26744;-51
2022/02/20 00:57:55;;;;;;;4.05;0.40;;;;;;;;;;1875461;76;26802;-56
2022/02/20 01:00:22;;;;;;;0.40;0.40;;;;;;;;;;1889340;76;26234;-60
2022/02/20 01:02:50;;;;;;;0.45;0.42;;;;;;;;;;1890452;75;26739;-60
2022/02/20 01:05:18;;;;;;;0.33;0.33;;;;;;;;;;1878208;76;26303;-56
2022/02/20 01:07:45;;;;;;;0.40;0.40;;;;;;;;;;1889636;76;26268;-53
2022/02/20 01:10:14;;;;;;;0.40;0.40;;;;;;;;;;1889647;76;26271;-55
2022/02/20 01:12:41;;;;;;;0.20;0.20;;;;;;;;;;1889658;76;26338;-57
2022/02/20 01:15:09;;;;;;;0.30;0.30;;;;;;;;;;1889000;76;26336;-54
2022/02/20 01:17:37;;;;;;;0.40;0.40;;;;;;;;;;1887484;76;26300;-52
2022/02/20 01:20:04;;;;;;;0.40;0.40;;;;;;;;;;1889676;76;26716;-57
2022/02/20 01:22:32;;;;;;;0.40;0.40;;;;;;;;;;1883627;76;25745;-54
2022/02/20 01:24:59;;;;;;;0.30;0.30;;;;;;;;;;1888589;76;26704;-54
2022/02/20 01:27:26;;;;;;;0.40;0.40;;;;;;;;;;1887301;76;26268;-54
2022/02/20 01:29:54;;;;;;;0.80;0.20;;;;;;;;;;1887417;76;25751;-59
2022/02/20 01:32:21;;;;;;;0.30;0.30;;;;;;;;;;1888718;76;26965;-61
2022/02/20 01:34:48;;;;;;;0.30;0.30;;;;;;;;;;1870346;76;26367;-56
2022/02/20 01:37:16;;;;;;;0.40;0.40;;;;;;;;;;1892070;75;26307;-54
2022/02/20 01:39:43;;;;;;;0.40;0.40;;;;;;;;;;1889830;76;26268;-54
2022/02/20 01:42:10;;;;;;;0.30;0.30;;;;;;;;;;1889559;76;26700;-62
2022/02/20 01:44:37;;;;;;;0.30;0.30;;;;;;;;;;1889339;75;26688;-54
2022/02/20 01:47:06;;;;;;;0.25;0.25;;;;;;;;;;1888047;75;26680;-59
2022/02/20 01:49:34;;;;;;;0.40;0.40;;;;;;;;;;1885271;76;26287;-62
2022/02/20 01:52:02;;;;;;;0.20;0.20;;;;;;;;;;1889858;76;27449;-59
2022/02/20 01:54:29;;;;;;;0.53;0.37;;;;;;;;;;1886836;76;26302;-54
2022/02/20 01:56:57;;;;;;;0.30;0.30;;;;;;;;;;1878912;76;26401;-54
2022/02/20 01:59:25;;;;;;;0.40;0.40;;;;;;;;;;1880197;76;26301;-58
2022/02/20 02:01:53;;;;;;;0.40;0.40;;;;;;;;;;1880006;76;26774;-57
2022/02/20 02:04:20;;;;;;;0.45;0.45;;;;;;;;;;1880374;76;26245;-59
2022/02/20 02:06:48;;;;;;;0.40;0.40;;;;;;;;;;1877462;75;26761;-51
2022/02/20 02:09:16;;;;;;;0.30;0.30;;;;;;;;;;1871948;76;26258;-52
2022/02/20 02:11:45;;;;;;;0.45;0.45;;;;;;;;;;1872617;76;26567;-52
2022/02/20 02:14:12;;;;;;;0.35;0.30;;;;;;;;;;1879890;76;26186;-56
2022/02/20 02:16:39;;;;;;;1.40;0.40;;;;;;;;;;1879075;75;26319;-55
2022/02/20 02:19:07;;;;;;;0.30;0.30;;;;;;;;;;1879307;76;26248;-59
2022/02/20 02:21:34;;;;;;;0.30;0.30;;;;;;;;;;1880191;75;26721;-53
2022/02/20 02:24:01;;;;;;;0.40;0.40;;;;;;;;;;1878685;76;26749;-53
2022/02/20 02:26:30;;;;;;;0.40;0.40;;;;;;;;;;1872697;76;26190;-53
2022/02/20 02:28:58;;;;;;;0.30;0.30;;;;;;;;;;1880074;76;26319;-57
2022/02/20 02:31:25;;;;;;;0.47;0.23;;;;;;;;;;1880120;76;26629;-53
2022/02/20 02:33:52;;;;;;;0.50;0.50;;;;;;;;;;1880085;76;26277;-52
2022/02/20 02:36:20;;;;;;;0.75;0.40;;;;;;;;;;1880168;76;26752;-58
2022/02/20 02:38:47;;;;;;;0.40;0.40;;;;;;;;;;1881442;75;26268;-57
2022/02/20 02:41:15;;;;;;;0.42;0.42;;;;;;;;;;1878127;76;26345;-58
2022/02/20 02:43:42;;;;;;;0.35;0.35;;;;;;;;;;1880206;76;26204;-56
2022/02/20 02:46:10;;;;;;;0.40;0.40;;;;;;;;;;1881200;75;26300;-57
2022/02/20 02:48:38;;;;;;;0.40;0.40;;;;;;;;;;1872679;76;26728;-61
2022/02/20 02:51:06;;;;;;;0.30;0.30;;;;;;;;;;1878880;76;26611;-59
2022/02/20 02:53:33;;;;;;;0.30;0.30;;;;;;;;;;1868611;75;26246;-56
2022/02/20 02:56:00;;;;;;;0.30;0.30;;;;;;;;;;1881025;75;26378;-64
2022/02/20 02:58:28;;;;;;;0.30;0.30;;;;;;;;;;1875107;76;26390;-58
2022/02/20 03:00:55;;;;;;;0.68;0.30;;;;;;;;;;1889382;76;26205;-56
2022/02/20 03:03:23;;;;;;;0.40;0.40;;;;;;;;;;1889378;76;26213;-59
2022/02/20 03:05:51;;;;;;;0.40;0.40;;;;;;;;;;1885063;76;26260;-58
2022/02/20 03:08:19;;;;;;;0.40;0.40;;;;;;;;;;1889259;76;26650;-58
2022/02/20 03:10:46;;;;;;;0.40;0.40;;;;;;;;;;1889598;76;26205;-56
2022/02/20 03:13:13;;;;;;;0.28;0.28;;;;;;;;;;1887906;76;26243;-57
2022/02/20 03:15:41;;;;;;;0.33;0.33;;;;;;;;;;1872598;75;26268;-57
2022/02/20 03:18:08;;;;;;;0.23;0.23;;;;;;;;;;1875895;76;26689;-61
2022/02/20 03:20:35;;;;;;;0.40;0.40;;;;;;;;;;1880104;76;26743;-59
2022/02/20 03:23:02;;;;;;;0.30;0.30;;;;;;;;;;1881756;76;26245;-60
2022/02/20 03:25:31;;;;;;;0.53;0.20;;;;;;;;;;1889716;76;26190;-60
2022/02/20 03:27:59;;;;;;;0.30;0.30;;;;;;;;;;1887675;75;26225;-52
2022/02/20 03:30:26;;;;;;;0.40;0.40;;;;;;;;;;1889417;76;26217;-55
2022/02/20 03:32:54;;;;;;;0.30;0.30;;;;;;;;;;1888784;76;26776;-56
2022/02/20 03:35:21;;;;;;;0.30;0.30;;;;;;;;;;1889051;76;26613;-58
2022/02/20 03:37:48;;;;;;;0.40;0.40;;;;;;;;;;1892464;75;26249;-57
2022/02/20 03:40:16;;;;;;;0.30;0.30;;;;;;;;;;1888957;76;26256;-57
2022/02/20 03:42:43;;;;;;;0.33;0.33;;;;;;;;;;1889124;76;26722;-56
2022/02/20 03:45:11;;;;;;;0.30;0.30;;;;;;;;;;1888992;76;26682;-54
2022/02/20 03:47:40;;;;;;;0.30;0.30;;;;;;;;;;1888991;76;26244;-58
2022/02/20 03:50:07;;;;;;;0.30;0.30;;;;;;;;;;1888449;76;26267;-54
2022/02/20 03:52:35;;;;;;;0.33;0.33;;;;;;;;;;1888683;76;26320;-57
2022/02/20 03:55:04;;;;;;;0.30;0.30;;;;;;;;;;1889553;75;26280;-59
2022/02/20 03:57:32;;;;;;;0.30;0.30;;;;;;;;;;1887459;76;26296;-63
2022/02/20 04:00:00;;;;;;;0.30;0.30;;;;;;;;;;1878907;76;26725;-58
2022/02/20 04:02:30;;;;;;;0.40;0.40;;;;;;;;;;1880070;76;26206;-58
2022/02/20 04:04:58;;;;;;;1.17;0.30;;;;;;;;;;1881101;75;26280;-57
2022/02/20 04:07:25;;;;;;;0.30;0.30;;;;;;;;;;1879469;76;26268;-55
2022/02/20 04:09:52;;;;;;;0.40;0.40;;;;;;;;;;1880160;76;26554;-60
2022/02/20 04:12:20;;;;;;;0.30;0.30;;;;;;;;;;1879961;76;26272;-55
2022/02/20 04:14:47;;;;;;;0.28;0.28;;;;;;;;;;1880529;76;26276;-56
2022/02/20 04:17:14;;;;;;;0.47;0.47;;;;;;;;;;1879944;76;26335;-61
2022/02/20 04:19:41;;;;;;;0.40;0.40;;;;;;;;;;1879956;76;26720;-58
2022/02/20 04:22:09;;;;;;;0.30;0.30;;;;;;;;;;1876634;76;26264;-55
2022/02/20 04:24:36;;;;;;;0.45;0.40;;;;;;;;;;1879978;76;26271;-56
2022/02/20 04:27:04;;;;;;;0.33;0.33;;;;;;;;;;1879851;76;26256;-59
2022/02/20 04:29:31;;;;;;;0.93;0.30;;;;;;;;;;1880037;75;26850;-60
2022/02/20 04:31:58;;;;;;;0.30;0.30;;;;;;;;;;1880093;76;26253;-54
2022/02/20 04:34:26;;;;;;;0.40;0.40;;;;;;;;;;1879999;76;26206;-56
2022/02/20 04:36:53;;;;;;;1.45;0.30;;;;;;;;;;1883315;75;26725;-56
2022/02/20 04:39:20;;;;;;;1.75;0.40;;;;;;;;;;1873967;76;26289;-51
2022/02/20 04:41:48;;;;;;;0.33;0.33;;;;;;;;;;1880122;76;26565;-54
2022/02/20 04:44:16;;;;;;;0.33;0.33;;;;;;;;;;1879397;76;27419;-61
2022/02/20 04:46:43;;;;;;;0.45;0.45;;;;;;;;;;1879084;75;26299;-57
2022/02/20 04:49:10;;;;;;;0.40;0.40;;;;;;;;;;1878374;76;26238;-59
2022/02/20 04:51:37;;;;;;;0.30;0.30;;;;;;;;;;1878845;75;26786;-54
2022/02/20 04:54:05;;;;;;;0.25;0.25;;;;;;;;;;1879841;76;26621;-56
2022/02/20 04:56:32;;;;;;;0.40;0.40;;;;;;;;;;1872862;75;26319;-53
2022/02/20 04:59:00;;;;;;;0.72;0.50;;;;;;;;;;1875922;76;26283;-52
2022/02/20 05:01:27;;;;;;;0.30;0.30;;;;;;;;;;1878215;76;26733;-55
2022/02/20 05:03:54;;;;;;;0.30;0.30;;;;;;;;;;1879910;76;26308;-63
2022/02/20 05:06:27;;;;;;;0.30;0.30;;;;;;;;;;1877482;76;26273;-61
2022/02/20 05:08:50;;;;;;;0.30;0.30;;;;;;;;;;1877947;76;26265;-53
2022/02/20 05:11:18;;;;;;;0.40;0.40;;;;;;;;;;1879818;76;26276;-57
2022/02/20 05:13:45;;;;;;;0.75;0.45;;;;;;;;;;1875917;76;26292;-52
2022/02/20 05:16:12;;;;;;;0.30;0.30;;;;;;;;;;1879558;75;26323;-54
2022/02/20 05:18:40;;;;;;;0.53;0.53;;;;;;;;;;1880047;76;26257;-55
2022/02/20 05:21:07;;;;;;;0.33;0.33;;;;;;;;;;1878695;76;26727;-57
2022/02/20 05:23:35;;;;;;;0.50;0.50;;;;;;;;;;1876913;76;27007;-61
2022/02/20 05:26:03;;;;;;;0.40;0.40;;;;;;;;;;1877336;76;26245;-57
2022/02/20 05:28:31;;;;;;;0.40;0.40;;;;;;;;;;1879203;76;26794;-56
2022/02/20 05:30:58;;;;;;;0.40;0.40;;;;;;;;;;1879003;76;26261;-59
2022/02/20 05:33:26;;;;;;;0.30;0.30;;;;;;;;;;1879933;76;26820;-60
2022/02/20 05:35:53;;;;;;;0.40;0.40;;;;;;;;;;1880327;76;26319;-61
2022/02/20 05:38:21;;;;;;;0.50;0.50;;;;;;;;;;1879219;75;26379;-62
2022/02/20 05:40:49;;;;;;;0.37;0.37;;;;;;;;;;1880219;76;26297;-61
2022/02/20 05:43:16;;;;;;;0.47;0.30;;;;;;;;;;1879821;76;26277;-60
2022/02/20 05:45:43;;;;;;;0.30;0.30;;;;;;;;;;1880117;76;26316;-53
2022/02/20 05:48:11;;;;;;;0.33;0.33;;;;;;;;;;1879903;76;26268;-59
2022/02/20 05:50:38;;;;;;;0.40;0.40;;;;;;;;;;1880494;76;26264;-56
2022/02/20 05:53:05;;;;;;;0.40;0.40;;;;;;;;;;1863127;75;26292;-57
2022/02/20 05:55:33;;;;;;;0.40;0.40;;;;;;;;;;1878931;76;26756;-52
2022/02/20 05:58:00;;;;;;;0.47;0.30;;;;;;;;;;1882218;76;26811;-59
2022/02/20 06:00:28;;;;;;;0.40;0.40;;;;;;;;;;1880248;76;26308;-56
2022/02/20 06:02:56;;;;;;;0.35;0.35;;;;;;;;;;1880071;76;26265;-55
2022/02/20 06:05:23;;;;;;;0.30;0.30;;;;;;;;;;1884716;75;26232;-56
2022/02/20 06:07:50;;;;;;;0.37;0.37;;;;;;;;;;1880713;76;26460;-59
2022/02/20 06:10:18;;;;;;;0.40;0.40;;;;;;;;;;1880325;76;26268;-57
2022/02/20 06:12:45;;;;;;;0.40;0.40;;;;;;;;;;1880191;76;26335;-63
2022/02/20 06:15:13;;;;;;;0.35;0.35;;;;;;;;;;1876187;76;26308;-58
2022/02/20 06:17:40;;;;;;;0.40;0.40;;;;;;;;;;1880428;76;26697;-57
2022/02/20 06:20:08;;;;;;;0.57;0.37;;;;;;;;;;1880373;76;26653;-51
2022/02/20 06:22:35;;;;;;;0.40;0.40;;;;;;;;;;1879644;76;26717;-54
2022/02/20 06:25:03;;;;;;;0.40;0.40;;;;;;;;;;1880206;76;26273;-58
2022/02/20 06:27:31;;;;;;;0.30;0.30;;;;;;;;;;1880029;76;26719;-52
2022/02/20 06:29:58;;;;;;;0.35;0.35;;;;;;;;;;1880435;76;26284;-53
2022/02/20 06:32:26;;;;;;;0.30;0.30;;;;;;;;;;1880284;76;26300;-55
2022/02/20 06:34:53;;;;;;;0.35;0.30;;;;;;;;;;1880492;76;26297;-64
2022/02/20 06:37:21;;;;;;;0.28;0.28;;;;;;;;;;1884365;75;26281;-62
2022/02/20 06:39:48;;;;;;;0.65;0.40;;;;;;;;;;1872829;76;26335;-57
2022/02/20 06:42:17;;;;;;;0.47;0.47;;;;;;;;;;1880301;76;26334;-59
2022/02/20 06:44:45;;;;;;;0.40;0.40;;;;;;;;;;1880341;76;26377;-59
2022/02/20 06:47:12;;;;;;;1.65;0.33;;;;;;;;;;1877428;75;26274;-53
2022/02/20 06:49:39;;;;;;;0.40;0.40;;;;;;;;;;1880193;76;26280;-55
2022/02/20 06:52:07;;;;;;;0.30;0.30;;;;;;;;;;1878209;76;26261;-54
2022/02/20 06:54:34;;;;;;;0.53;0.30;;;;;;;;;;1878861;76;26798;-56
2022/02/20 06:57:02;;;;;;;0.30;0.30;;;;;;;;;;1880788;75;26254;-53
2022/02/20 06:59:29;;;;;;;0.30;0.30;;;;;;;;;;1879953;75;26783;-56
2022/02/20 07:01:56;;;;;;;0.37;0.37;;;;;;;;;;1888442;76;27348;-53
2022/02/20 07:04:24;;;;;;;0.30;0.30;;;;;;;;;;1889416;75;26201;-57
2022/02/20 07:06:51;;;;;;;0.35;0.35;;;;;;;;;;1877306;75;26346;-56
2022/02/20 07:09:18;;;;;;;1.17;0.40;;;;;;;;;;1889369;76;26257;-51
2022/02/20 07:11:46;;;;;;;1.45;0.50;;;;;;;;;;1889614;76;26332;-56
2022/02/20 07:14:13;;;;;;;0.40;0.40;;;;;;;;;;1883435;76;26260;-53
2022/02/20 07:16:40;;;;;;;0.20;0.20;;;;;;;;;;1889468;76;26275;-56
2022/02/20 07:19:07;;;;;;;0.40;0.40;;;;;;;;;;1889173;76;26346;-53
2022/02/20 07:21:35;;;;;;;0.30;0.30;;;;;;;;;;1882635;76;26341;-59
2022/02/20 07:24:02;;;;;;;0.40;0.40;;;;;;;;;;1889213;76;26308;-56
2022/02/20 07:26:32;;;;;;;0.30;0.30;;;;;;;;;;1889487;76;26716;-52
2022/02/20 07:28:58;;;;;;;0.40;0.40;;;;;;;;;;1889117;76;26332;-60
2022/02/20 07:31:26;;;;;;;0.40;0.40;;;;;;;;;;1889507;75;26257;-53
2022/02/20 07:33:57;;;;;;;0.30;0.30;;;;;;;;;;1889133;76;26772;-59
2022/02/20 07:36:24;;;;;;;0.30;0.30;;;;;;;;;;1889580;75;26296;-57
2022/02/20 07:38:51;;;;;;;0.30;0.30;;;;;;;;;;1889245;76;26264;-52
2022/02/20 07:41:19;;;;;;;1.75;0.35;;;;;;;;;;1889029;76;26330;-59
2022/02/20 07:43:48;;;;;;;0.65;0.20;;;;;;;;;;1889177;76;26330;-57
2022/02/20 07:46:16;;;;;;;0.65;0.40;;;;;;;;;;1884886;76;26356;-60
2022/02/20 07:48:45;;;;;;;0.72;0.30;;;;;;;;;;1888009;76;26799;-60
2022/02/20 07:51:13;;;;;;;0.40;0.40;;;;;;;;;;1889368;76;25907;-54
2022/02/20 07:53:41;;;;;;;0.30;0.30;;;;;;;;;;1889344;75;26277;-58
2022/02/20 07:56:09;;;;;;;1.50;0.50;;;;;;;;;;1882476;75;26389;-57
2022/02/20 07:58:37;;;;;;;1.05;0.50;;;;;;;;;;1888381;76;27439;-59
2022/02/20 08:01:05;;;;;;;0.62;0.37;;;;;;;;;;1888231;76;26304;-58
2022/02/20 08:03:32;;;;;;;1.00;0.37;;;;;;;;;;1888146;76;26256;-60
2022/02/20 08:06:00;;;;;;;0.55;0.40;;;;;;;;;;1888431;76;26245;-54
2022/02/20 08:08:28;;;;;;;0.40;0.40;;;;;;;;;;1888224;76;26265;-58
2022/02/20 08:10:56;;;;;;;0.50;0.50;;;;;;;;;;1888920;76;26228;-61
2022/02/20 08:13:23;;;;;;;0.35;0.35;;;;;;;;;;1889046;76;26287;-57
2022/02/20 08:15:51;;;;;;;0.40;0.40;;;;;;;;;;1889320;76;26252;-57
2022/02/20 08:18:19;;;;;;;0.40;0.40;;;;;;;;;;1889594;76;26252;-53
2022/02/20 08:20:46;;;;;;;0.35;0.35;;;;;;;;;;1889010;76;26798;-60
2022/02/20 08:23:17;;;;;;;0.93;0.50;;;;;;;;;;1888144;76;26265;-65
2022/02/20 08:25:43;;;;;;;0.40;0.40;;;;;;;;;;1887779;76;26451;-63
2022/02/20 08:28:11;;;;;;;0.40;0.40;;;;;;;;;;1889167;76;26287;-55
2022/02/20 08:30:38;;;;;;;0.30;0.30;;;;;;;;;;1889395;76;26248;-55
2022/02/20 08:33:06;;;;;;;0.37;0.30;;;;;;;;;;1889106;76;26879;-65
2022/02/20 08:35:33;;;;;;;0.35;0.30;;;;;;;;;;1889434;76;26669;-55
2022/02/20 08:38:02;;;;;;;0.40;0.40;;;;;;;;;;1887959;76;26326;-62
2022/02/20 08:40:30;;;;;;;0.53;0.53;;;;;;;;;;1880348;76;26273;-57
2022/02/20 08:42:57;;;;;;;3.95;0.90;;;;;;;;;;1887499;76;27028;-54
2022/02/20 08:45:25;;;;;;;3.80;0.68;;;;;;;;;;1889773;76;26457;-50
2022/02/20 08:47:52;;;;;;;8.88;0.90;;;;;;;;;;1883759;74;26688;-49
2022/02/20 08:50:19;;;;;;;3.30;0.60;;;;;;;;;;1889070;76;26723;-48
2022/02/20 08:52:49;;;;;;;1.55;1.20;;;;;;;;;;1888943;76;26956;-55
2022/02/20 08:55:15;;;;;;;2.67;0.68;;;;;;;;;;1886404;76;26399;-54
2022/02/20 08:57:44;;;;;;;0.72;0.50;;;;;;;;;;1888593;76;26339;-48
2022/02/20 09:00:13;;;;;;;2.85;0.68;;;;;;;;;;1885836;76;26280;-55
2022/02/20 09:02:41;;;;;;;1.12;0.60;;;;;;;;;;1890839;75;26749;-52
2022/02/20 09:05:08;;;;;;;5.42;0.60;;;;;;;;;;1889459;75;26291;-46
2022/02/20 09:07:36;;;;;;;3.60;0.60;;;;;;;;;;1890024;76;26293;-49
2022/02/20 09:10:06;;;;;;;3.70;0.40;;;;;;;;;;1889910;76;26877;-51
2022/02/20 09:12:32;;;;;;;0.75;0.60;;;;;;;;;;1887315;76;26670;-46
2022/02/20 09:15:00;;;;;;;1.37;0.45;;;;;;;;;;1888837;76;26382;-47
2022/02/20 09:17:27;;;;;;;0.40;0.40;;;;;;;;;;1889369;76;26323;-49
2022/02/20 09:19:54;;;;;;;0.60;0.60;;;;;;;;;;1888457;76;26280;-48
2022/02/20 09:22:21;;;;;;;0.53;0.50;;;;;;;;;;1887095;76;26225;-48
2022/02/20 09:24:49;;;;;;;0.50;0.50;;;;;;;;;;1889205;76;26354;-51
2022/02/20 09:27:16;;;;;;;1.35;0.40;;;;;;;;;;1888882;75;26354;-49
2022/02/20 09:29:43;;;;;;;0.40;0.40;;;;;;;;;;1889102;76;26355;-46
2022/02/20 09:32:10;;;;;;;2.25;0.50;;;;;;;;;;1889535;76;26481;-47
2022/02/20 09:34:38;;;;;;;0.72;0.60;;;;;;;;;;1888915;76;26209;-49
2022/02/20 09:37:06;;;;;;;0.70;0.70;;;;;;;;;;1887358;74;26225;-55
2022/02/20 09:39:33;;;;;;;0.75;0.68;;;;;;;;;;1888710;76;26718;-51
2022/02/20 09:42:01;;;;;;;0.78;0.70;;;;;;;;;;1889822;76;26334;-51
2022/02/20 09:44:29;;;;;;;0.57;0.57;;;;;;;;;;1890111;76;26752;-55
2022/02/20 09:46:56;;;;;;;0.60;0.60;;;;;;;;;;1889377;76;26942;-61
2022/02/20 09:49:27;;;;;;;0.80;0.80;;;;;;;;;;1889251;76;26728;-51
2022/02/20 09:51:55;;;;;;;1.17;0.70;;;;;;;;;;1890059;76;26277;-49
2022/02/20 09:54:23;;;;;;;3.17;1.00;;;;;;;;;;1883304;76;26315;-50
2022/02/20 09:56:50;;;;;;;0.80;0.80;;;;;;;;;;1889952;76;26287;-50
2022/02/20 09:59:18;;;;;;;2.75;0.90;;;;;;;;;;1890050;76;26796;-51
2022/02/20 10:02:06;;;;;;;1.45;0.70;;;;;;;;;;1888778;76;26760;-47
2022/02/20 10:04:37;;;;;;;3.00;0.70;;;;;;;;;;1870361;76;26382;-47
2022/02/20 10:07:05;;;;;;;1.02;0.65;;;;;;;;;;1864828;76;26285;-49
2022/02/20 10:09:38;;;;;;;2.98;0.50;;;;;;;;;;1880401;76;26623;-47
2022/02/20 10:12:07;;;;;;;0.50;0.50;;;;;;;;;;1880586;76;26351;-46
2022/02/20 10:14:34;;;;;;;0.80;0.80;;;;;;;;;;1872448;76;26311;-46
2022/02/20 10:17:26;;;;;;;0.62;0.50;;;;;;;;;;1874998;76;26875;-45
2022/02/20 10:19:54;;;;;;;2.35;0.62;;;;;;;;;;1876151;76;26362;-48
2022/02/20 10:22:26;;;;;;;0.60;0.60;;;;;;;;;;1873676;76;26253;-48
2022/02/20 10:25:01;;;;;;;0.47;0.42;;;;;;;;;;1880292;76;26246;-47
2022/02/20 10:27:28;;;;;;;1.60;0.50;;;;;;;;;;1876668;75;26226;-47
2022/02/20 10:30:09;;;;;;;2.02;0.47;;;;;;;;;;1876008;76;26295;-46
2022/02/20 10:32:36;;;;;;;0.35;0.35;;;;;;;;;;1879564;75;26277;-49
2022/02/20 10:35:08;;;;;;;1.25;0.40;;;;;;;;;;1879269;75;26292;-49
2022/02/20 10:37:35;;;;;;;2.33;0.60;;;;;;;;;;1875532;75;26773;-49
2022/02/20 10:40:04;;;;;;;1.07;0.47;;;;;;;;;;1866982;76;26312;-48
2022/02/20 10:42:33;;;;;;;0.50;0.50;;;;;;;;;;1875089;75;26249;-47
2022/02/20 10:45:01;;;;;;;0.30;0.30;;;;;;;;;;1879667;76;26265;-50
2022/02/20 10:47:32;;;;;;;0.45;0.45;;;;;;;;;;1880145;76;26253;-51
2022/02/20 10:50:15;;;;;;;1.65;0.30;;;;;;;;;;1876184;75;26537;-50
2022/02/20 10:52:43;;;;;;;1.02;0.50;;;;;;;;;;1880105;76;26253;-49
2022/02/20 10:55:12;;;;;;;0.60;0.60;;;;;;;;;;1880368;76;26668;-51
2022/02/20 10:57:41;;;;;;;0.40;0.40;;;;;;;;;;1880499;76;26872;-50
2022/02/20 11:00:12;;;;;;;0.50;0.50;;;;;;;;;;1879061;76;26256;-47
2022/02/20 11:02:40;;;;;;;2.15;0.80;;;;;;;;;;1882781;75;26370;-47
2022/02/20 11:05:07;;;;;;;0.70;0.55;;;;;;;;;;1877508;75;26275;-48
2022/02/20 11:07:38;;;;;;;0.72;0.55;;;;;;;;;;1885416;76;26189;-47
2022/02/20 11:10:07;;;;;;;0.82;0.80;;;;;;;;;;1886930;76;26190;-49
2022/02/20 11:12:39;;;;;;;0.57;0.57;;;;;;;;;;1877980;75;26193;-49
2022/02/20 11:15:05;;;;;;;0.50;0.50;;;;;;;;;;1880620;76;26332;-50
2022/02/20 11:17:37;;;;;;;0.57;0.57;;;;;;;;;;1890169;76;26271;-49
2022/02/20 11:20:03;;;;;;;0.37;0.37;;;;;;;;;;1886655;76;26328;-47
2022/02/20 11:22:31;;;;;;;0.60;0.60;;;;;;;;;;1873516;74;27245;-47
2022/02/20 11:24:59;;;;;;;0.68;0.68;;;;;;;;;;1872390;76;26358;-51
2022/02/20 11:27:27;;;;;;;0.62;0.62;;;;;;;;;;1871932;76;26752;-48
2022/02/20 11:29:54;;;;;;;0.62;0.62;;;;;;;;;;1877243;76;26346;-47
2022/02/20 11:32:22;;;;;;;0.60;0.60;;;;;;;;;;1873866;76;26248;-49
2022/02/20 11:34:50;;;;;;;0.45;0.45;;;;;;;;;;1871785;76;26361;-47
2022/02/20 11:37:18;;;;;;;0.70;0.70;;;;;;;;;;1884804;75;26318;-52
2022/02/20 11:40:02;;;;;;;0.60;0.60;;;;;;;;;;1880557;76;26254;-47
2022/02/20 11:42:29;;;;;;;1.05;0.40;;;;;;;;;;1881970;76;26264;-48
2022/02/20 11:44:58;;;;;;;0.50;0.50;;;;;;;;;;1876198;76;26746;-50
2022/02/20 11:47:36;;;;;;;0.57;0.50;;;;;;;;;;1866659;76;26745;-52
2022/02/20 11:50:20;;;;;;;0.60;0.60;;;;;;;;;;1889228;76;26249;-49
2022/02/20 11:52:49;;;;;;;0.72;0.50;;;;;;;;;;1886871;75;27272;-50
2022/02/20 11:55:20;;;;;;;0.60;0.60;;;;;;;;;;1873721;76;26319;-47
2022/02/20 11:57:47;;;;;;;0.53;0.53;;;;;;;;;;1889382;76;26290;-48
2022/02/20 12:00:18;;;;;;;0.40;0.40;;;;;;;;;;1884614;76;26250;-49
2022/02/20 12:03:04;;;;;;;0.50;0.50;;;;;;;;;;1887055;76;26294;-46
2022/02/20 12:05:33;;;;;;;0.50;0.50;;;;;;;;;;1887936;76;26310;-53
2022/02/20 12:08:01;;;;;;;0.42;0.42;;;;;;;;;;1888683;76;26298;-49
2022/02/20 12:10:32;;;;;;;1.32;0.70;;;;;;;;;;1888686;76;26253;-50
2022/02/20 12:13:10;;;;;;;0.70;0.70;;;;;;;;;;1889172;76;26256;-47
2022/02/20 12:15:41;;;;;;;0.57;0.57;;;;;;;;;;1889209;76;27465;-47
2022/02/20 12:18:16;;;;;;;0.70;0.70;;;;;;;;;;1884778;76;26261;-46
2022/02/20 12:20:56;;;;;;;1.47;0.90;;;;;;;;;;1886038;76;26764;-48
2022/02/20 12:23:34;;;;;;;1.35;1.25;;;;;;;;;;1887820;76;26205;-46
2022/02/20 12:26:03;;;;;;;1.80;1.70;;;;;;;;;;1889596;76;26292;-49
2022/02/20 12:28:35;;;;;;;2.35;2.25;;;;;;;;;;1889367;76;26267;-50
2022/02/20 12:31:13;;;;;;;2.50;2.40;;;;;;;;;;1889381;76;26338;-48
2022/02/20 12:33:44;;;;;;;2.75;2.65;;;;;;;;;;1881546;76;26293;-48
2022/02/20 12:36:10;;;;;;;3.17;2.98;;;;;;;;;;1888157;76;26372;-46
2022/02/20 12:38:39;;;;;;;3.37;3.20;;;;;;;;;;1892000;75;26413;-52
2022/02/20 12:41:09;;;;;;;3.08;2.98;;;;;;;;;;1886647;76;26365;-52
2022/02/20 12:43:37;;;;;;;4.00;3.47;;;;;;;;;;1889158;76;26289;-48
2022/02/20 12:46:04;;;;;;;3.55;3.35;;;;;;;;;;1889344;76;26279;-46
2022/02/20 12:48:32;;;;;;;3.52;3.33;;;;;;;;;;1888753;74;26581;-49
2022/02/20 12:50:59;;;;;;;3.42;3.22;;;;;;;;;;1885552;76;26268;-47
2022/02/20 12:53:26;;;;;;;3.62;3.42;;;;;;;;;;1888902;76;26296;-46
2022/02/20 12:55:55;;;;;;;3.80;3.47;;;;;;;;;;1889326;76;26949;-49
2022/02/20 12:58:24;;;;;;;3.95;3.65;;;;;;;;;;1889656;76;26288;-49
2022/02/20 13:00:51;;;;;;;3.92;3.65;;;;;;;;;;1889646;76;26266;-46
2022/02/20 13:03:20;;;;;;;3.80;3.60;;;;;;;;;;1889477;76;26883;-50
2022/02/20 13:05:50;;;;;;;3.75;3.55;;;;;;;;;;1887983;76;26256;-48
2022/02/20 13:08:19;;;;;;;4.15;3.75;;;;;;;;;;1889382;76;26662;-48
2022/02/20 13:10:47;;;;;;;3.72;3.47;;;;;;;;;;1889367;76;26768;-46
2022/02/20 13:13:16;;;;;;;3.60;3.40;;;;;;;;;;1890550;75;26280;-48
2022/02/20 13:15:49;;;;;;;3.92;3.62;;;;;;;;;;1889708;76;26264;-46
2022/02/20 13:18:20;;;;;;;3.45;3.33;;;;;;;;;;1874389;75;26262;-46
2022/02/20 13:20:54;;;;;;;3.85;3.60;;;;;;;;;;1887107;76;26359;-45
2022/02/20 13:23:26;;;;;;;3.25;2.95;;;;;;;;;;1888434;76;27372;-47
2022/02/20 13:25:55;;;;;;;3.47;3.27;;;;;;;;;;1880763;76;26340;-48
2022/02/20 13:28:24;;;;;;;3.10;3.00;;;;;;;;;;1884562;76;26257;-50
2022/02/20 13:30:52;;;;;;;3.02;2.87;;;;;;;;;;1889741;76;26794;-49
2022/02/20 13:33:21;;;;;;;3.20;3.00;;;;;;;;;;1888852;76;26272;-46
2022/02/20 13:35:49;;;;;;;3.10;2.90;;;;;;;;;;1889976;76;26661;-47
2022/02/20 13:38:17;;;;;;;2.95;2.85;;;;;;;;;;1892758;75;26390;-48
2022/02/20 13:40:46;;;;;;;2.80;2.60;;;;;;;;;;1888934;76;26749;-48
2022/02/20 13:43:14;;;;;;;2.62;2.52;;;;;;;;;;1888964;76;27237;-49
2022/02/20 13:45:43;;;;;;;2.70;2.50;;;;;;;;;;1890179;76;26232;-47
2022/02/20 13:48:23;;;;;;;2.70;2.60;;;;;;;;;;1881378;76;26265;-47
2022/02/20 13:50:52;;;;;;;2.60;2.50;;;;;;;;;;1885629;76;26292;-46
2022/02/20 13:53:19;;;;;;;2.22;2.12;;;;;;;;;;1884008;76;26197;-47
2022/02/20 13:55:54;;;;;;;2.70;2.50;;;;;;;;;;1889809;76;26233;-51
2022/02/20 13:58:24;;;;;;;2.55;2.20;;;;;;;;;;1885934;76;26802;-53
2022/02/20 14:00:53;;;;;;;2.30;2.20;;;;;;;;;;1889338;75;26194;-47
2022/02/20 14:03:20;;;;;;;1.80;1.70;;;;;;;;;;1885910;76;26822;-50
2022/02/20 14:05:48;;;;;;;1.90;1.80;;;;;;;;;;1877245;75;26280;-47
2022/02/20 14:08:17;;;;;;;1.70;1.60;;;;;;;;;;1871190;76;26724;-50
2022/02/20 14:10:48;;;;;;;1.45;1.45;;;;;;;;;;1879566;76;26351;-53
2022/02/20 14:13:19;;;;;;;1.62;1.57;;;;;;;;;;1860479;76;28306;-45
2022/02/20 14:15:47;;;;;;;2.37;1.72;;;;;;;;;;1878799;76;26339;-45
2022/02/20 14:18:16;;;;;;;2.08;1.50;;;;;;;;;;1876254;76;26272;-51
2022/02/20 14:20:53;;;;;;;1.50;1.40;;;;;;;;;;1871977;76;27104;-53
2022/02/20 14:23:21;;;;;;;1.50;1.40;;;;;;;;;;1875791;76;26284;-51
2022/02/20 14:25:49;;;;;;;1.30;1.30;;;;;;;;;;1859061;76;26716;-53
2022/02/20 14:28:18;;;;;;;1.35;1.25;;;;;;;;;;1873342;76;26320;-49
2022/02/20 14:30:46;;;;;;;1.35;1.30;;;;;;;;;;1868214;76;26277;-49
2022/02/20 14:33:14;;;;;;;1.30;1.20;;;;;;;;;;1859457;76;26672;-48
2022/02/20 14:35:44;;;;;;;2.90;1.25;;;;;;;;;;1879062;76;26244;-48
2022/02/20 14:38:16;;;;;;;1.10;1.10;;;;;;;;;;1874850;76;26657;-48
2022/02/20 14:40:43;;;;;;;1.20;1.10;;;;;;;;;;1880104;76;26645;-49
2022/02/20 14:43:11;;;;;;;1.95;1.10;;;;;;;;;;1880220;76;26268;-49
2022/02/20 14:45:42;;;;;;;1.35;1.10;;;;;;;;;;1879969;76;26688;-45
2022/02/20 14:48:11;;;;;;;1.17;1.07;;;;;;;;;;1872179;75;26346;-44
2022/02/20 14:50:39;;;;;;;0.90;0.90;;;;;;;;;;1879070;75;26448;-46